createdAt,value
2022-10-17T00:08:13.672Z,15.77
2022-10-17T00:23:15.645Z,15.25
2022-10-17T00:38:17.607Z,18.00
2022-10-17T00:53:19.842Z,16.80
2022-10-17T01:08:21.915Z,16.38
2022-10-17T01:23:29.604Z,16.55
2022-10-17T01:38:36.122Z,16.15
2022-10-17T01:53:44.956Z,20.35
2022-10-17T02:08:49.437Z,17.80
2022-10-17T02:23:53.917Z,17.60
2022-10-17T02:38:57.336Z,18.45
2022-10-17T02:54:24.906Z,23.27
2022-10-17T03:09:34.362Z,18.45
2022-10-17T03:24:36.335Z,21.03
2022-10-17T03:39:38.277Z,23.85
2022-10-17T03:54:40.680Z,29.88
2022-10-17T04:09:42.555Z,31.92
2022-10-17T04:24:45.035Z,25.65
2022-10-17T04:39:46.907Z,30.35
2022-10-17T04:54:48.897Z,19.20
2022-10-17T05:09:50.865Z,22.33
2022-10-17T05:24:52.755Z,24.95
2022-10-17T05:39:54.685Z,28.50
2022-10-17T05:54:56.656Z,27.02
2022-10-17T06:09:59.309Z,28.98
2022-10-17T06:25:01.207Z,28.90
2022-10-17T06:40:03.294Z,29.70
2022-10-17T06:55:05.481Z,40.88
2022-10-17T07:10:10.315Z,41.08
2022-10-17T07:25:12.376Z,43.53
2022-10-17T07:40:14.317Z,40.50
2022-10-17T07:55:16.358Z,43.33
2022-10-17T08:10:18.422Z,38.63
2022-10-17T08:25:20.456Z,38.63
2022-10-17T08:40:27.977Z,40.45
2022-10-17T08:55:50.416Z,37.80
2022-10-17T09:11:24.985Z,34.97
2022-10-17T09:26:27.217Z,31.50
2022-10-17T09:41:49.800Z,34.08
2022-10-17T09:57:06.796Z,29.48
2022-10-17T10:12:18.946Z,31.60
2022-10-17T10:27:21.035Z,31.23
2022-10-17T10:42:38.137Z,34.05
2022-10-17T10:57:40.666Z,32.17
2022-10-17T11:12:48.546Z,28.98
2022-10-17T11:27:50.504Z,29.33
2022-10-17T11:42:59.698Z,26.33
2022-10-17T12:13:49.096Z,24.50
2022-10-17T12:28:51.774Z,22.40
2022-10-17T12:43:55.040Z,21.38
2022-10-17T12:58:59.507Z,20.05
2022-10-17T13:14:09.535Z,20.02
2022-10-17T13:29:14.998Z,19.33
2022-10-17T13:44:38.515Z,21.95
2022-10-17T13:59:47.995Z,19.00
2022-10-17T14:15:10.524Z,23.63
2022-10-17T14:45:50.404Z,20.58
2022-10-17T15:00:52.386Z,21.25
2022-10-17T15:15:54.315Z,23.17
2022-10-17T15:30:56.196Z,27.73
2022-10-17T15:46:00.595Z,27.25
2022-10-17T16:01:04.471Z,25.45
2022-10-17T16:16:06.836Z,30.77
2022-10-17T16:31:30.455Z,48.10
2022-10-17T16:46:34.025Z,86.40
2022-10-17T17:01:36.018Z,37.33
2022-10-17T17:16:38.055Z,34.25
2022-10-17T17:31:40.015Z,40.20
2022-10-17T17:46:43.796Z,35.33
2022-10-17T18:01:51.393Z,29.90
2022-10-17T18:16:53.378Z,35.30
2022-10-17T18:31:55.985Z,58.00
2022-10-17T18:47:03.060Z,37.65
2022-10-17T19:02:06.905Z,42.70
2022-10-17T19:17:09.065Z,37.38
2022-10-17T19:32:15.726Z,37.08
2022-10-17T19:47:20.081Z,37.57
2022-10-17T20:02:22.071Z,44.05
2022-10-17T20:17:24.348Z,39.88
2022-10-17T20:32:26.260Z,35.85
2022-10-17T20:47:40.538Z,37.30
2022-10-17T21:02:47.208Z,43.60
2022-10-17T21:17:49.101Z,34.95
2022-10-17T21:32:55.170Z,36.08
2022-10-17T21:48:13.466Z,34.22
2022-10-17T22:03:17.104Z,36.30
2022-10-17T22:18:18.980Z,32.20
2022-10-17T22:48:29.131Z,33.88
2022-10-17T23:03:31.885Z,27.65
2022-10-17T23:18:33.964Z,29.73
2022-10-17T23:33:35.810Z,32.35
2022-10-17T23:48:38.946Z,36.45
